Time;durP1;ratioP1;P1;durP2;ratioP2;P2;SDS_P1;SDS_P2;PMS_P1;PMS_P2;Temp;Humidity;BMP_temperature;BMP_pressure;BME280_temperature;BME280_humidity;BME280_pressure;Samples;Min_cycle;Max_cycle;Signal;HPM_P1;HPM_P2
2022/11/03 00:01:39;;;;;;;6.17;2.80;;;6.00;99.90;;;;;;5028915;28;20334;-80
2022/11/03 00:04:08;;;;;;;8.47;2.27;;;6.00;99.90;;;;;;5023322;28;20219;-80
2022/11/03 00:06:35;;;;;;;12.67;2.47;;;6.00;99.90;;;;;;5016542;28;20232;-80
2022/11/03 00:09:05;;;;;;;11.07;3.13;;;6.00;99.90;;;;;;5010419;28;20758;-80
2022/11/03 00:11:32;;;;;;;7.43;2.30;;;6.00;99.90;;;;;;5015015;28;20720;-79
2022/11/03 00:13:59;;;;;;;6.23;2.63;;;6.00;99.90;;;;;;5026585;28;20214;-80
2022/11/03 00:16:26;;;;;;;13.47;2.67;;;6.00;99.90;;;;;;5018504;28;20599;-82
2022/11/03 00:18:54;;;;;;;5.27;2.50;;;6.00;99.90;;;;;;5011324;28;20413;-83
2022/11/03 00:21:21;;;;;;;8.60;2.60;;;6.00;99.90;;;;;;5029755;28;20219;-81
2022/11/03 00:23:48;;;;;;;6.47;2.50;;;6.00;99.90;;;;;;5034611;28;20771;-82
2022/11/03 00:26:16;;;;;;;7.00;2.60;;;6.00;99.90;;;;;;5027175;28;20243;-82
2022/11/03 00:28:45;;;;;;;7.70;2.53;;;6.00;99.90;;;;;;5035299;28;21824;-81
2022/11/03 00:31:13;;;;;;;9.23;2.50;;;6.00;99.90;;;;;;5035039;28;20386;-82
2022/11/03 00:33:41;;;;;;;8.90;2.40;;;6.00;99.90;;;;;;5015922;28;20238;-82
2022/11/03 00:36:11;;;;;;;6.73;2.23;;;6.00;99.90;;;;;;5017365;28;20226;-82
2022/11/03 00:38:38;;;;;;;5.80;2.50;;;6.00;99.90;;;;;;5030232;28;20330;-82
2022/11/03 00:41:06;;;;;;;7.23;2.40;;;5.90;99.90;;;;;;5031329;28;20738;-82
2022/11/03 00:43:38;;;;;;;9.50;2.77;;;5.90;99.90;;;;;;5034234;28;20315;-82
2022/11/03 00:46:06;;;;;;;8.90;2.40;;;5.90;99.90;;;;;;5012575;28;20236;-82
2022/11/03 00:48:34;;;;;;;6.47;2.53;;;5.90;99.90;;;;;;5035016;28;21932;-82
2022/11/03 00:51:03;;;;;;;5.37;2.23;;;5.90;99.90;;;;;;5031437;28;20226;-82
2022/11/03 00:53:33;;;;;;;9.03;2.23;;;5.90;99.90;;;;;;5022168;28;20218;-82
2022/11/03 00:56:00;;;;;;;11.27;2.77;;;5.90;99.90;;;;;;5032850;28;20227;-82
2022/11/03 00:58:27;;;;;;;7.80;2.27;;;5.90;99.90;;;;;;5014030;28;20229;-82
2022/11/03 01:00:59;;;;;;;6.30;2.17;;;5.90;99.90;;;;;;5037228;28;20562;-82
2022/11/03 01:03:26;;;;;;;4.93;2.00;;;5.90;99.90;;;;;;5034455;28;20227;-82
2022/11/03 01:08:39;;;;;;;6.97;2.40;;;5.90;99.90;;;;;;5024970;28;20808;-82
2022/11/03 01:13:51;;;;;;;6.67;2.53;;;6.00;99.90;;;;;;5013391;28;20247;-82
2022/11/03 01:16:18;;;;;;;8.50;3.13;;;6.00;99.90;;;;;;5013216;28;20224;-82
2022/11/03 01:18:45;;;;;;;8.37;2.33;;;6.00;99.90;;;;;;5029860;28;20229;-82
2022/11/03 01:21:11;;;;;;;6.27;2.30;;;6.00;99.90;;;;;;5010873;28;20216;-81
2022/11/03 01:23:40;;;;;;;6.97;2.10;;;6.00;99.90;;;;;;5028997;28;20870;-82
2022/11/03 01:26:07;;;;;;;5.97;2.33;;;6.00;99.90;;;;;;5027995;28;20258;-82
2022/11/03 01:28:34;;;;;;;6.70;2.30;;;6.00;99.90;;;;;;5022898;28;21672;-82
2022/11/03 01:31:03;;;;;;;6.93;2.33;;;6.00;99.90;;;;;;5019170;28;20220;-82
2022/11/03 01:33:30;;;;;;;7.93;3.07;;;6.00;99.90;;;;;;5014484;28;21871;-81
2022/11/03 01:35:57;;;;;;;6.37;2.23;;;6.10;99.90;;;;;;5017047;28;20223;-82
2022/11/03 01:38:24;;;;;;;7.13;2.47;;;6.10;99.90;;;;;;5012570;28;20625;-83
2022/11/03 01:40:52;;;;;;;6.53;2.10;;;6.10;99.90;;;;;;5027749;28;20221;-82
2022/11/03 01:43:21;;;;;;;5.37;1.97;;;6.10;99.90;;;;;;5025470;28;20226;-82
2022/11/03 01:45:51;;;;;;;9.10;2.30;;;6.10;99.90;;;;;;5025052;28;20239;-82
2022/11/03 01:48:19;;;;;;;8.23;2.10;;;6.20;99.90;;;;;;5022569;28;20224;-81
2022/11/03 01:50:48;;;;;;;7.60;2.53;;;6.20;99.90;;;;;;5026551;28;20231;-82
2022/11/03 01:53:17;;;;;;;10.10;2.60;;;6.20;99.90;;;;;;5021856;28;20226;-82
2022/11/03 01:55:46;;;;;;;7.30;2.00;;;6.20;99.90;;;;;;5020333;28;20309;-82
2022/11/03 01:58:18;;;;;;;5.93;2.20;;;6.20;99.90;;;;;;5009641;28;20223;-81
2022/11/03 02:00:48;;;;;;;7.47;2.43;;;6.20;99.90;;;;;;5031723;28;20231;-82
2022/11/03 02:03:18;;;;;;;7.20;1.73;;;6.20;99.90;;;;;;5000618;28;20321;-81
2022/11/03 02:05:47;;;;;;;6.90;2.10;;;6.20;99.90;;;;;;5023610;28;20747;-82
2022/11/03 02:08:17;;;;;;;9.17;2.17;;;6.30;99.90;;;;;;5027040;28;20220;-81
2022/11/03 02:10:47;;;;;;;5.57;1.83;;;6.20;99.90;;;;;;5025610;28;20900;-82
2022/11/03 02:13:19;;;;;;;5.87;1.90;;;6.20;99.90;;;;;;5009023;28;20295;-82
2022/11/03 02:15:47;;;;;;;9.20;2.53;;;6.20;99.90;;;;;;5010011;28;20322;-82
2022/11/03 02:18:15;;;;;;;7.00;2.30;;;6.30;99.90;;;;;;5029077;28;20237;-82
2022/11/03 02:20:47;;;;;;;6.67;1.93;;;6.30;99.90;;;;;;5013126;28;20236;-82
2022/11/03 02:23:24;;;;;;;5.77;1.90;;;6.30;99.90;;;;;;5016377;28;20282;-82
2022/11/03 02:25:54;;;;;;;9.23;2.33;;;6.30;99.90;;;;;;5034502;28;20244;-83
2022/11/03 02:28:23;;;;;;;6.87;2.13;;;6.40;99.90;;;;;;5018272;28;20246;-83
2022/11/03 02:30:57;;;;;;;8.10;2.17;;;6.40;99.90;;;;;;5016962;28;20221;-83
2022/11/03 02:33:37;;;;;;;7.40;2.10;;;6.40;99.90;;;;;;5033101;28;20808;-83
2022/11/03 02:36:08;;;;;;;4.23;1.90;;;6.40;99.90;;;;;;5021623;28;20354;-83
2022/11/03 02:38:41;;;;;;;8.87;2.03;;;6.40;99.90;;;;;;5037009;28;20228;-82
2022/11/03 02:41:11;;;;;;;6.93;1.60;;;6.40;99.90;;;;;;5032185;28;20224;-82
2022/11/03 02:43:39;;;;;;;8.90;2.53;;;6.40;99.90;;;;;;5035183;28;20241;-82
2022/11/03 02:46:07;;;;;;;7.17;2.27;;;6.50;99.90;;;;;;5016874;28;20229;-83
2022/11/03 02:48:36;;;;;;;6.10;1.90;;;6.50;99.90;;;;;;5024931;28;20525;-82
2022/11/03 02:51:04;;;;;;;7.87;2.13;;;6.50;99.90;;;;;;5023882;28;20688;-83
2022/11/03 02:53:31;;;;;;;11.30;2.50;;;6.40;99.90;;;;;;5036220;28;20680;-82
2022/11/03 02:56:04;;;;;;;7.80;1.80;;;6.40;99.90;;;;;;5033445;28;20573;-82
2022/11/03 02:58:37;;;;;;;5.40;1.73;;;6.50;99.90;;;;;;5017064;28;20305;-82
2022/11/03 03:01:13;;;;;;;12.60;2.40;;;6.50;99.90;;;;;;5036945;28;20236;-82
2022/11/03 03:03:45;;;;;;;5.53;1.90;;;6.50;99.90;;;;;;5034831;28;20262;-82
2022/11/03 03:06:18;;;;;;;4.77;1.77;;;6.50;99.90;;;;;;5033271;28;20231;-82
2022/11/03 03:08:49;;;;;;;5.23;1.83;;;6.50;99.90;;;;;;5016100;28;20232;-82
2022/11/03 03:11:35;;;;;;;7.43;2.00;;;6.50;99.90;;;;;;5033425;28;20308;-82
2022/11/03 03:14:08;;;;;;;4.37;1.57;;;6.50;99.90;;;;;;5028496;28;20220;-83
2022/11/03 03:16:42;;;;;;;5.63;1.93;;;6.50;99.90;;;;;;5013226;28;20256;-84
2022/11/03 03:19:23;;;;;;;6.73;2.17;;;6.50;99.90;;;;;;5017998;28;20229;-82
2022/11/03 03:21:53;;;;;;;5.77;2.00;;;6.50;99.90;;;;;;5032401;28;20220;-82
2022/11/03 03:24:27;;;;;;;8.17;2.37;;;6.50;99.90;;;;;;5034890;28;20275;-82
2022/11/03 03:26:58;;;;;;;9.13;1.93;;;6.50;99.90;;;;;;5020233;28;20232;-82
2022/11/03 03:29:30;;;;;;;3.33;1.60;;;6.60;99.90;;;;;;5020094;28;20229;-82
2022/11/03 03:32:01;;;;;;;7.40;2.00;;;6.50;99.90;;;;;;5033097;28;20237;-82
2022/11/03 03:34:29;;;;;;;4.63;1.63;;;6.50;99.90;;;;;;5028736;28;20393;-82
2022/11/03 03:36:58;;;;;;;5.37;1.87;;;6.60;99.90;;;;;;5034309;28;20252;-82
2022/11/03 03:39:28;;;;;;;6.90;2.17;;;6.50;99.90;;;;;;5016189;28;20233;-82
2022/11/03 03:41:57;;;;;;;7.67;2.00;;;6.50;99.90;;;;;;5012316;28;20223;-83
2022/11/03 03:44:25;;;;;;;4.97;2.20;;;6.50;99.90;;;;;;5030428;28;20246;-83
2022/11/03 03:46:58;;;;;;;7.70;2.33;;;6.40;99.90;;;;;;5018426;28;20226;-82
2022/11/03 03:49:25;;;;;;;4.70;2.23;;;6.40;99.90;;;;;;5011237;28;20308;-82
2022/11/03 03:51:52;;;;;;;9.63;1.93;;;6.40;99.90;;;;;;5022703;28;20221;-82
2022/11/03 03:54:18;;;;;;;6.17;2.23;;;6.30;99.90;;;;;;5011987;28;20312;-83
2022/11/03 03:56:53;;;;;;;8.90;2.73;;;6.30;99.90;;;;;;5026513;28;20242;-82
2022/11/03 03:59:20;;;;;;;6.60;2.07;;;6.30;99.90;;;;;;5022310;28;20278;-83
2022/11/03 04:01:47;;;;;;;6.37;2.27;;;6.20;99.90;;;;;;5011631;28;20239;-83
2022/11/03 04:04:15;;;;;;;8.07;2.47;;;6.20;99.90;;;;;;5011598;28;20224;-83
2022/11/03 04:06:41;;;;;;;5.37;2.10;;;6.10;99.90;;;;;;5008794;28;20239;-81
2022/11/03 04:09:09;;;;;;;6.30;2.13;;;6.10;99.90;;;;;;5022223;28;20254;-82
2022/11/03 04:22:34;;;;;;;6.27;2.23;;;6.00;99.90;;;;;;5025080;28;20311;-81
2022/11/03 04:25:01;;;;;;;5.83;2.00;;;6.00;99.90;;;;;;5009328;28;20838;-81
2022/11/03 04:27:30;;;;;;;6.83;2.27;;;6.00;99.90;;;;;;5014767;28;20235;-81
2022/11/03 04:30:01;;;;;;;7.40;2.40;;;5.90;99.90;;;;;;5010770;28;20219;-82
2022/11/03 04:32:28;;;;;;;4.83;2.03;;;5.90;99.90;;;;;;5011346;28;20252;-82
2022/11/03 04:35:00;;;;;;;8.20;2.53;;;5.90;99.90;;;;;;5034472;28;20230;-82
2022/11/03 04:37:28;;;;;;;8.20;2.07;;;5.90;99.90;;;;;;5008424;28;20871;-81
2022/11/03 04:39:59;;;;;;;10.90;2.30;;;5.90;99.90;;;;;;5030221;28;20825;-82
2022/11/03 04:42:28;;;;;;;7.57;2.30;;;5.80;99.90;;;;;;5011962;28;20231;-81
2022/11/03 04:45:11;;;;;;;8.10;2.23;;;5.90;99.90;;;;;;5029866;28;20712;-82
2022/11/03 04:47:38;;;;;;;5.67;2.30;;;5.90;99.90;;;;;;5011893;28;20237;-81
2022/11/03 04:50:16;;;;;;;8.43;2.20;;;5.90;99.90;;;;;;5017837;28;21093;-81
2022/11/03 04:52:43;;;;;;;5.00;2.30;;;5.80;99.90;;;;;;5012552;28;20289;-83
2022/11/03 04:55:15;;;;;;;5.43;2.23;;;5.80;99.90;;;;;;5028225;28;20227;-82
2022/11/03 04:57:45;;;;;;;9.07;2.47;;;5.80;99.90;;;;;;5033464;28;20230;-81
2022/11/03 05:00:16;;;;;;;8.17;2.80;;;5.90;99.90;;;;;;5009612;28;20219;-81
2022/11/03 05:02:43;;;;;;;5.43;2.20;;;5.90;99.90;;;;;;5015889;28;20232;-80
2022/11/03 05:05:18;;;;;;;6.93;2.50;;;5.80;99.90;;;;;;5024682;28;20321;-79
2022/11/03 05:07:48;;;;;;;9.67;2.27;;;5.80;99.90;;;;;;5029294;28;20267;-81
2022/11/03 05:10:17;;;;;;;8.70;2.30;;;5.90;99.90;;;;;;5005938;28;20217;-79
2022/11/03 05:12:45;;;;;;;6.00;2.00;;;5.90;99.90;;;;;;5025072;28;20259;-80
2022/11/03 05:15:28;;;;;;;8.80;1.80;;;5.90;99.90;;;;;;5021318;28;20301;-79
2022/11/03 05:17:56;;;;;;;5.93;2.00;;;5.90;99.90;;;;;;5022038;28;20318;-79
2022/11/03 05:20:31;;;;;;;6.60;2.20;;;5.90;99.90;;;;;;5022759;28;20242;-78
2022/11/03 05:22:58;;;;;;;7.60;2.23;;;5.90;99.90;;;;;;5023786;28;20683;-79
2022/11/03 05:25:35;;;;;;;8.60;2.40;;;5.90;99.90;;;;;;5019559;28;20227;-79
2022/11/03 05:28:02;;;;;;;6.33;2.00;;;5.90;99.90;;;;;;5024583;28;20227;-77
2022/11/03 05:30:29;;;;;;;8.03;1.93;;;5.90;99.90;;;;;;5001532;28;20235;-78
2022/11/03 05:32:56;;;;;;;5.17;2.20;;;5.90;99.90;;;;;;5004584;28;20253;-78
2022/11/03 05:35:23;;;;;;;7.43;2.13;;;5.90;99.90;;;;;;5015549;28;20249;-78
2022/11/03 05:37:51;;;;;;;6.57;2.30;;;5.90;99.90;;;;;;5018111;28;20555;-79
2022/11/03 05:40:23;;;;;;;6.17;2.10;;;5.90;99.90;;;;;;5024873;28;20227;-77
2022/11/03 05:42:53;;;;;;;6.80;1.87;;;5.90;99.90;;;;;;5025208;28;20228;-78
2022/11/03 05:45:22;;;;;;;8.10;2.00;;;5.90;99.90;;;;;;5026795;28;20229;-76
2022/11/03 05:47:52;;;;;;;6.57;2.07;;;5.90;99.90;;;;;;5006927;28;20235;-75
2022/11/03 05:50:23;;;;;;;8.60;2.60;;;6.00;99.90;;;;;;5000719;28;20626;-78
2022/11/03 05:52:54;;;;;;;5.57;2.03;;;6.00;99.90;;;;;;5002124;28;20271;-77
2022/11/03 05:55:25;;;;;;;7.30;2.30;;;5.90;99.90;;;;;;5022087;28;20239;-78
2022/11/03 05:57:53;;;;;;;7.77;2.27;;;6.00;99.90;;;;;;5018948;28;21040;-78
2022/11/03 06:00:28;;;;;;;6.60;1.80;;;6.00;99.90;;;;;;5018152;28;20232;-78
2022/11/03 06:02:55;;;;;;;8.83;2.17;;;6.00;99.90;;;;;;5009088;28;20222;-78
2022/11/03 06:05:24;;;;;;;8.40;2.33;;;6.00;99.90;;;;;;5003023;28;20228;-78
2022/11/03 06:07:54;;;;;;;6.90;2.10;;;6.00;99.90;;;;;;4998944;28;20334;-78
2022/11/03 06:10:26;;;;;;;9.43;2.40;;;6.00;99.90;;;;;;5017242;28;20227;-78
2022/11/03 06:12:57;;;;;;;8.50;1.90;;;6.10;99.90;;;;;;5006894;28;20225;-79
2022/11/03 06:15:29;;;;;;;8.33;2.10;;;6.10;99.90;;;;;;5015743;28;20338;-78
2022/11/03 06:17:57;;;;;;;5.03;2.53;;;6.10;99.90;;;;;;5026210;28;20227;-79
2022/11/03 06:20:24;;;;;;;10.80;3.10;;;6.10;99.90;;;;;;5017893;28;20481;-78
2022/11/03 06:22:54;;;;;;;10.17;2.03;;;6.20;99.90;;;;;;5008596;28;20374;-77
2022/11/03 06:25:27;;;;;;;9.13;2.27;;;6.10;99.90;;;;;;5018079;28;20303;-78
2022/11/03 06:27:56;;;;;;;9.43;2.57;;;6.20;99.90;;;;;;5025430;28;20228;-79
2022/11/03 06:30:26;;;;;;;6.17;2.57;;;6.20;99.90;;;;;;5013382;28;20225;-79
2022/11/03 06:32:54;;;;;;;5.40;1.83;;;6.30;99.90;;;;;;5019481;28;20235;-78
2022/11/03 06:35:21;;;;;;;6.40;2.77;;;6.30;99.90;;;;;;5019130;28;20223;-78
2022/11/03 06:37:48;;;;;;;9.70;2.20;;;6.30;99.90;;;;;;5020479;28;20232;-79
2022/11/03 06:40:34;;;;;;;7.83;2.70;;;6.40;99.90;;;;;;4999548;28;20233;-78
2022/11/03 06:43:10;;;;;;;11.23;2.97;;;6.40;99.90;;;;;;5017280;28;20217;-79
2022/11/03 06:45:37;;;;;;;7.53;2.67;;;6.40;99.90;;;;;;5021198;28;21984;-79
2022/11/03 06:48:08;;;;;;;11.13;2.37;;;6.40;99.90;;;;;;5021507;28;20773;-79
2022/11/03 06:50:37;;;;;;;6.50;2.40;;;6.40;99.90;;;;;;5025600;28;20299;-79
2022/11/03 06:53:04;;;;;;;6.03;2.57;;;6.40;99.90;;;;;;5024194;28;20597;-79
2022/11/03 06:55:34;;;;;;;7.17;2.60;;;6.40;99.90;;;;;;5024176;28;20224;-78
2022/11/03 06:58:07;;;;;;;9.13;2.30;;;6.50;99.90;;;;;;5018779;28;20244;-79
2022/11/03 07:00:38;;;;;;;5.60;2.33;;;6.40;99.90;;;;;;5022818;28;20301;-80
2022/11/03 07:03:08;;;;;;;4.50;1.93;;;6.40;99.90;;;;;;5017422;28;20598;-78
2022/11/03 07:05:36;;;;;;;8.23;2.30;;;6.40;99.90;;;;;;5020609;28;20784;-78
2022/11/03 07:08:11;;;;;;;6.97;2.20;;;6.40;99.90;;;;;;5024149;28;20361;-79
2022/11/03 07:10:39;;;;;;;8.50;2.33;;;6.40;99.90;;;;;;5001830;28;20235;-79
2022/11/03 07:13:13;;;;;;;6.80;2.57;;;6.50;99.90;;;;;;5020208;28;20224;-79
2022/11/03 07:15:42;;;;;;;6.13;2.30;;;6.50;99.90;;;;;;5026037;28;20253;-78
2022/11/03 07:18:19;;;;;;;8.23;2.20;;;6.50;99.90;;;;;;5021633;28;20226;-78
2022/11/03 07:20:46;;;;;;;7.23;2.47;;;6.50;99.90;;;;;;5025517;28;20266;-79
2022/11/03 07:23:18;;;;;;;6.50;2.23;;;6.50;99.90;;;;;;5007004;28;20218;-79
2022/11/03 07:25:52;;;;;;;8.13;2.30;;;6.60;99.90;;;;;;5008096;28;20314;-79
2022/11/03 07:28:19;;;;;;;9.50;2.37;;;6.70;99.90;;;;;;5007453;28;20217;-78
2022/11/03 07:30:45;;;;;;;10.60;2.80;;;6.70;99.90;;;;;;5025463;28;20224;-79
2022/11/03 07:33:15;;;;;;;6.20;2.20;;;6.70;99.90;;;;;;5004332;28;20233;-78
2022/11/03 07:35:44;;;;;;;5.83;2.27;;;6.70;99.90;;;;;;5026793;28;20260;-78
2022/11/03 07:38:14;;;;;;;6.07;2.27;;;6.80;99.90;;;;;;5028178;28;20225;-78
2022/11/03 07:40:41;;;;;;;5.90;2.13;;;6.90;99.90;;;;;;5023186;28;20713;-78
2022/11/03 07:43:18;;;;;;;8.17;2.13;;;6.90;99.90;;;;;;5010515;28;20230;-78
2022/11/03 07:45:49;;;;;;;14.10;2.10;;;7.00;99.90;;;;;;5024310;28;20306;-78
2022/11/03 07:48:20;;;;;;;12.13;2.20;;;7.00;99.90;;;;;;5024472;28;20284;-78
2022/11/03 07:50:47;;;;;;;8.40;2.00;;;7.00;99.90;;;;;;5024087;28;20228;-78
2022/11/03 07:53:19;;;;;;;5.57;2.13;;;7.10;99.90;;;;;;5023780;28;20231;-78
2022/11/03 07:55:46;;;;;;;12.83;2.97;;;7.10;99.90;;;;;;5029087;28;20674;-78
2022/11/03 07:58:20;;;;;;;9.10;2.07;;;7.20;99.90;;;;;;5023200;28;20231;-78
2022/11/03 08:00:47;;;;;;;7.17;2.37;;;7.20;99.90;;;;;;5023999;28;20230;-78
2022/11/03 08:03:32;;;;;;;6.70;1.90;;;7.20;99.90;;;;;;5021015;28;20226;-78
2022/11/03 08:05:59;;;;;;;11.57;2.23;;;7.30;99.90;;;;;;5008629;28;20254;-78
2022/11/03 08:08:26;;;;;;;11.77;2.40;;;7.30;99.90;;;;;;5022122;28;20226;-78
2022/11/03 08:10:52;;;;;;;6.90;2.60;;;7.40;99.90;;;;;;5011465;28;20235;-78
2022/11/03 08:13:20;;;;;;;6.57;2.90;;;7.40;99.90;;;;;;5023009;28;20583;-77
2022/11/03 08:15:47;;;;;;;6.47;2.50;;;7.50;99.90;;;;;;5020410;28;20712;-77
2022/11/03 08:18:13;;;;;;;7.70;2.50;;;7.60;99.90;;;;;;5023074;28;20217;-78
2022/11/03 08:20:40;;;;;;;6.80;1.97;;;7.50;99.90;;;;;;5020367;28;20977;-78
2022/11/03 08:23:07;;;;;;;6.43;2.17;;;7.60;99.90;;;;;;5021771;28;20331;-78
2022/11/03 08:25:33;;;;;;;7.47;2.30;;;7.60;99.90;;;;;;5025264;28;20222;-77
2022/11/03 08:28:01;;;;;;;11.10;2.70;;;7.70;99.90;;;;;;5023276;28;20224;-78
2022/11/03 08:30:32;;;;;;;9.47;2.50;;;7.80;99.90;;;;;;5027704;28;20723;-77
2022/11/03 08:32:59;;;;;;;9.53;2.47;;;7.90;99.90;;;;;;5023622;28;20229;-77
2022/11/03 08:35:26;;;;;;;7.87;1.93;;;7.90;99.90;;;;;;5023705;28;20222;-79
2022/11/03 08:37:53;;;;;;;8.97;2.10;;;7.90;99.90;;;;;;5024448;28;20231;-79
2022/11/03 08:40:19;;;;;;;7.13;2.10;;;8.00;99.90;;;;;;5026953;28;20244;-79
2022/11/03 08:42:46;;;;;;;7.53;2.07;;;8.10;99.90;;;;;;5023420;28;20227;-79
2022/11/03 08:45:13;;;;;;;10.07;2.33;;;8.20;99.90;;;;;;5013240;28;20226;-80
2022/11/03 08:47:41;;;;;;;8.33;1.90;;;8.30;99.90;;;;;;5021850;28;20918;-81
2022/11/03 08:50:08;;;;;;;6.73;2.07;;;8.40;99.90;;;;;;5008376;28;20227;-78
2022/11/03 08:52:35;;;;;;;8.73;2.33;;;8.50;99.90;;;;;;5010323;28;20289;-78
2022/11/03 08:55:01;;;;;;;6.67;2.37;;;8.60;99.90;;;;;;5020024;28;20229;-80
2022/11/03 08:57:29;;;;;;;5.93;2.20;;;8.70;99.90;;;;;;5027972;28;21287;-79
2022/11/03 08:59:56;;;;;;;5.73;2.10;;;8.80;99.90;;;;;;5027342;28;20955;-79
2022/11/03 09:02:23;;;;;;;5.30;2.30;;;8.90;99.90;;;;;;5022231;28;20238;-79
2022/11/03 09:04:51;;;;;;;6.33;2.17;;;9.00;99.90;;;;;;5007881;28;20227;-80
2022/11/03 09:07:18;;;;;;;5.17;2.00;;;9.10;99.90;;;;;;5024872;28;20231;-79
2022/11/03 09:09:44;;;;;;;6.33;2.10;;;9.10;99.90;;;;;;5010708;28;20234;-79
2022/11/03 09:12:11;;;;;;;8.40;2.20;;;9.20;99.90;;;;;;5007673;28;20233;-82
2022/11/03 09:14:38;;;;;;;5.50;1.90;;;9.30;99.90;;;;;;5017654;28;20222;-80
2022/11/03 09:17:04;;;;;;;7.13;2.20;;;9.30;99.90;;;;;;5011184;28;20230;-80
2022/11/03 09:19:31;;;;;;;5.90;2.10;;;9.40;99.90;;;;;;5005684;28;20570;-79
2022/11/03 09:21:59;;;;;;;6.00;1.93;;;9.40;99.90;;;;;;5018180;28;20748;-86
2022/11/03 09:24:26;;;;;;;7.70;2.10;;;9.50;99.90;;;;;;5022736;28;20222;-85
2022/11/03 09:26:53;;;;;;;5.53;2.00;;;9.50;99.90;;;;;;5031545;28;20258;-87
2022/11/03 09:29:20;;;;;;;8.10;3.57;;;9.60;99.90;;;;;;5007340;28;20516;-86
2022/11/03 09:31:46;;;;;;;7.60;2.00;;;9.60;99.90;;;;;;5024068;28;20224;-87
2022/11/03 09:34:14;;;;;;;6.60;2.40;;;9.70;99.90;;;;;;5016599;28;20452;-88
2022/11/03 09:36:40;;;;;;;7.97;2.90;;;9.80;99.90;;;;;;5026385;28;20597;-89
2022/11/03 09:39:10;;;;;;;8.07;2.20;;;9.80;99.90;;;;;;5008135;28;20231;-87
2022/11/03 09:41:37;;;;;;;9.33;2.70;;;10.00;99.90;;;;;;5019103;28;20306;-86
2022/11/03 09:44:04;;;;;;;7.07;2.73;;;10.00;99.90;;;;;;5011926;28;20219;-87
2022/11/03 09:46:31;;;;;;;7.33;2.40;;;10.20;99.90;;;;;;5008292;28;20573;-87
2022/11/03 09:48:58;;;;;;;6.80;2.00;;;10.30;99.90;;;;;;5010312;28;20220;-84
2022/11/03 09:51:27;;;;;;;5.83;2.03;;;10.50;99.90;;;;;;5019282;28;20220;-88
2022/11/03 09:53:56;;;;;;;6.80;1.90;;;10.60;99.90;;;;;;5024678;28;20217;-87
2022/11/03 09:56:25;;;;;;;6.20;2.20;;;10.70;99.90;;;;;;5012913;28;20225;-84
2022/11/03 09:58:52;;;;;;;6.23;2.30;;;10.90;99.90;;;;;;5023499;28;21136;-88
2022/11/03 10:01:19;;;;;;;5.10;2.17;;;11.00;99.90;;;;;;5023633;28;20225;-82
2022/11/03 10:03:45;;;;;;;6.73;1.90;;;11.20;99.90;;;;;;5026527;28;20434;-85
2022/11/03 10:06:12;;;;;;;7.57;1.90;;;11.30;99.90;;;;;;5023319;28;20235;-79
2022/11/03 10:08:40;;;;;;;8.00;1.90;;;11.50;99.90;;;;;;5006652;28;20253;-78
2022/11/03 10:11:08;;;;;;;6.70;1.90;;;11.60;99.90;;;;;;5036886;28;20696;-78
2022/11/03 10:13:39;;;;;;;7.40;2.07;;;11.80;99.90;;;;;;5021567;28;20227;-79
2022/11/03 10:16:07;;;;;;;9.43;2.20;;;11.90;99.90;;;;;;5007348;28;20247;-80
2022/11/03 10:18:37;;;;;;;5.77;2.10;;;12.10;99.90;;;;;;5015819;28;20236;-79
2022/11/03 10:21:05;;;;;;;7.60;2.03;;;12.20;99.90;;;;;;5015907;28;20233;-79
2022/11/03 10:23:32;;;;;;;5.40;2.30;;;12.30;99.90;;;;;;5032368;28;20232;-79
2022/11/03 10:26:09;;;;;;;7.67;2.27;;;12.40;99.90;;;;;;5027413;28;20439;-78
2022/11/03 10:28:39;;;;;;;7.40;2.23;;;12.60;99.90;;;;;;5013757;28;20241;-79
2022/11/03 10:31:17;;;;;;;8.33;2.07;;;12.70;99.90;;;;;;5016564;28;20296;-80
2022/11/03 10:33:52;;;;;;;5.83;1.90;;;12.80;99.90;;;;;;5013662;28;20262;-79
2022/11/03 10:36:24;;;;;;;4.97;2.07;;;12.90;99.90;;;;;;5029207;28;20405;-79
2022/11/03 10:38:51;;;;;;;7.03;1.93;;;13.00;99.90;;;;;;5034584;28;20302;-78
2022/11/03 10:41:19;;;;;;;7.90;2.30;;;13.00;99.90;;;;;;5029042;28;20515;-79
2022/11/03 10:44:00;;;;;;;5.57;1.90;;;13.00;99.90;;;;;;4988776;28;20225;-77
2022/11/03 10:46:28;;;;;;;6.93;1.80;;;13.00;99.90;;;;;;5014619;28;20325;-78
2022/11/03 10:49:04;;;;;;;7.00;2.23;;;13.10;99.90;;;;;;5023032;28;20227;-78
2022/11/03 10:51:32;;;;;;;6.80;2.03;;;13.10;99.90;;;;;;5018074;28;20246;-78
2022/11/03 10:53:59;;;;;;;8.27;2.30;;;13.00;99.90;;;;;;5014815;28;20228;-78
2022/11/03 10:56:26;;;;;;;8.97;2.20;;;13.00;99.90;;;;;;5018670;28;20562;-78
2022/11/03 10:58:55;;;;;;;5.83;2.10;;;12.90;99.90;;;;;;5003322;28;20228;-78
2022/11/03 11:01:21;;;;;;;5.83;1.83;;;12.90;99.90;;;;;;5022426;28;20640;-78
2022/11/03 11:03:48;;;;;;;7.80;1.90;;;12.90;99.90;;;;;;5020153;28;20230;-77
2022/11/03 11:06:24;;;;;;;6.10;1.87;;;12.90;99.90;;;;;;5024475;28;20227;-77
2022/11/03 11:08:56;;;;;;;5.07;1.90;;;12.90;99.90;;;;;;5008301;28;20252;-77
2022/11/03 11:11:23;;;;;;;4.93;1.87;;;13.00;99.90;;;;;;5007768;28;20801;-79
2022/11/03 11:14:22;;;;;;;6.50;1.97;;;13.00;99.90;;;;;;5010092;28;20308;-79
2022/11/03 11:16:51;;;;;;;5.17;1.80;;;13.10;99.90;;;;;;5006593;28;20226;-79
2022/11/03 11:19:18;;;;;;;6.53;2.20;;;13.10;99.90;;;;;;5025838;28;20577;-79
2022/11/03 11:22:14;;;;;;;8.93;2.03;;;13.20;99.90;;;;;;5005803;28;20241;-79
2022/11/03 11:25:00;;;;;;;9.10;2.00;;;13.20;99.90;;;;;;5003681;28;20232;-79
2022/11/03 11:27:47;;;;;;;4.97;1.73;;;13.30;99.90;;;;;;5017819;28;20277;-79
2022/11/03 11:31:01;;;;;;;8.23;1.87;;;13.30;99.90;;;;;;5015753;28;20236;-79
2022/11/03 11:33:33;;;;;;;6.27;2.00;;;13.30;99.90;;;;;;5017370;28;20563;-79
2022/11/03 11:36:10;;;;;;;5.73;2.10;;;13.30;99.90;;;;;;5016777;28;20291;-79
2022/11/03 11:39:10;;;;;;;6.60;1.93;;;13.30;99.90;;;;;;5021696;28;20400;-79
2022/11/03 11:42:06;;;;;;;6.67;1.73;;;13.40;99.90;;;;;;5020861;28;20235;-78
2022/11/03 11:44:53;;;;;;;6.73;2.13;;;13.40;99.90;;;;;;5020077;28;20227;-78
2022/11/03 11:47:47;;;;;;;6.40;2.10;;;13.50;99.90;;;;;;5022058;28;20264;-79
2022/11/03 11:50:30;;;;;;;6.47;2.20;;;13.50;99.90;;;;;;5016815;28;20224;-79
2022/11/03 11:53:00;;;;;;;4.83;1.93;;;13.50;99.90;;;;;;5003959;28;20316;-79
2022/11/03 11:55:39;;;;;;;6.83;1.63;;;13.50;99.90;;;;;;5005503;28;20793;-78
2022/11/03 11:58:15;;;;;;;7.37;2.27;;;13.50;99.90;;;;;;5020082;28;20621;-79
2022/11/03 12:00:52;;;;;;;5.80;1.67;;;13.40;99.90;;;;;;5020054;28;20315;-78
2022/11/03 12:03:25;;;;;;;5.37;1.70;;;13.40;99.90;;;;;;5008444;28;20224;-81
2022/11/03 12:05:53;;;;;;;6.70;2.10;;;13.40;99.90;;;;;;5026700;28;20267;-81
2022/11/03 12:08:25;;;;;;;6.30;1.93;;;13.40;99.90;;;;;;5024285;28;20233;-81
2022/11/03 12:10:55;;;;;;;5.67;1.80;;;13.40;99.90;;;;;;5029508;28;20252;-81
2022/11/03 12:13:46;;;;;;;5.27;2.27;;;13.40;99.90;;;;;;5022360;28;20287;-81
2022/11/03 12:16:33;;;;;;;8.87;1.80;;;13.40;99.90;;;;;;5024044;28;20215;-78
2022/11/03 12:19:39;;;;;;;4.53;1.53;;;13.40;99.90;;;;;;5018846;28;20637;-78
2022/11/03 12:22:09;;;;;;;8.90;2.20;;;13.50;99.90;;;;;;5011195;28;20272;-79
2022/11/03 12:24:51;;;;;;;4.00;1.80;;;13.50;99.90;;;;;;5023663;28;20307;-78
2022/11/03 12:27:39;;;;;;;5.37;1.80;;;13.40;99.90;;;;;;5025515;28;20246;-79
2022/11/03 12:30:11;;;;;;;5.77;1.87;;;13.50;99.90;;;;;;5018914;28;20663;-81
2022/11/03 12:32:41;;;;;;;6.00;1.90;;;13.50;99.90;;;;;;5024374;28;20282;-82
2022/11/03 12:35:09;;;;;;;5.43;1.70;;;13.50;99.90;;;;;;5024893;28;20846;-82
2022/11/03 12:37:37;;;;;;;5.00;1.90;;;13.50;99.90;;;;;;5025625;28;20231;-81
2022/11/03 12:40:05;;;;;;;5.77;1.70;;;13.40;99.90;;;;;;5007773;28;20222;-81
2022/11/03 12:42:32;;;;;;;6.77;1.90;;;13.50;99.90;;;;;;5026964;28;20233;-81
2022/11/03 12:45:01;;;;;;;6.00;2.00;;;13.50;99.90;;;;;;5019210;28;20227;-82
2022/11/03 12:47:28;;;;;;;3.17;1.63;;;13.50;99.90;;;;;;5017420;28;20240;-81
2022/11/03 12:49:54;;;;;;;6.67;1.70;;;13.50;99.90;;;;;;5013697;28;20228;-79
2022/11/03 12:52:21;;;;;;;6.20;1.67;;;13.50;99.90;;;;;;5023321;28;20259;-80
2022/11/03 12:54:49;;;;;;;5.87;2.07;;;13.60;99.90;;;;;;5023993;28;20233;-79
2022/11/03 12:57:16;;;;;;;6.07;1.97;;;13.60;99.90;;;;;;5025404;28;20232;-80
2022/11/03 12:59:43;;;;;;;6.37;2.00;;;13.70;99.90;;;;;;5018523;28;20243;-79
2022/11/03 13:02:10;;;;;;;5.63;2.23;;;13.70;99.90;;;;;;5008371;28;20238;-80
2022/11/03 13:04:37;;;;;;;5.80;1.83;;;13.70;99.90;;;;;;5016485;28;20225;-80
2022/11/03 13:07:04;;;;;;;5.00;2.00;;;13.60;99.90;;;;;;5023640;28;20313;-78
2022/11/03 13:09:30;;;;;;;4.57;2.30;;;13.60;99.90;;;;;;5004222;28;20228;-79
2022/11/03 13:14:43;;;;;;;8.63;3.33;;;13.50;99.90;;;;;;5021885;28;20308;-80
2022/11/03 13:17:10;;;;;;;9.70;4.53;;;13.40;99.90;;;;;;4990261;28;20229;-79
2022/11/03 13:19:36;;;;;;;7.33;2.30;;;13.40;99.90;;;;;;5016837;28;20640;-79
2022/11/03 13:22:03;;;;;;;5.57;2.60;;;13.30;99.90;;;;;;5010941;28;20232;-80
2022/11/03 13:24:30;;;;;;;6.87;2.10;;;13.30;99.90;;;;;;5006666;28;20234;-79
2022/11/03 13:26:56;;;;;;;5.57;1.90;;;13.30;99.90;;;;;;5009506;28;20234;-79
2022/11/03 13:29:24;;;;;;;5.27;1.70;;;13.30;99.90;;;;;;5024706;28;20238;-80